createdAt,value
2022-11-30T00:01:48.397Z,97035.28
2022-11-30T00:04:16.931Z,97034.19
2022-11-30T00:06:45.228Z,97035.38
2022-11-30T00:09:15.194Z,97028.97
2022-11-30T00:11:44.353Z,97029.03
2022-11-30T00:14:13.466Z,97025.97
2022-11-30T00:16:43.658Z,97022.69
2022-11-30T00:19:12.053Z,97023.75
2022-11-30T00:21:40.433Z,97027.47
2022-11-30T00:24:09.572Z,97021.91
2022-11-30T00:26:38.148Z,97017.53
2022-11-30T00:29:07.055Z,97020.09
2022-11-30T00:31:35.557Z,97018.63
2022-11-30T00:34:05.355Z,97023.00
2022-11-30T00:36:33.706Z,97016.03
2022-11-30T00:39:02.242Z,97014.72
2022-11-30T00:41:31.951Z,97006.31
2022-11-30T00:44:01.434Z,97008.09
2022-11-30T00:46:32.638Z,97010.78
2022-11-30T00:49:01.249Z,97004.69
2022-11-30T00:51:30.888Z,97005.63
2022-11-30T00:54:00.049Z,97016.25
2022-11-30T00:56:28.495Z,97017.53
2022-11-30T00:58:56.840Z,97016.00
2022-11-30T01:01:25.616Z,97015.38
2022-11-30T01:03:54.587Z,97021.28
2022-11-30T01:06:22.876Z,97015.41
2022-11-30T01:08:52.847Z,97013.25
2022-11-30T01:11:25.844Z,97019.16
2022-11-30T01:13:55.570Z,97016.75
2022-11-30T01:16:28.340Z,97015.50
2022-11-30T01:18:57.220Z,97020.13
2022-11-30T01:21:28.507Z,97020.03
2022-11-30T01:23:58.376Z,97019.34
2022-11-30T01:26:27.988Z,97023.50
2022-11-30T01:28:57.322Z,97019.75
2022-11-30T01:31:26.539Z,97019.44
2022-11-30T01:33:57.153Z,97023.44
2022-11-30T01:36:28.101Z,97016.00
2022-11-30T01:38:59.183Z,97027.25
2022-11-30T01:41:30.996Z,97015.06
2022-11-30T01:44:50.732Z,97028.13
2022-11-30T01:47:24.036Z,97027.94
2022-11-30T01:49:59.951Z,97021.38
2022-11-30T01:52:34.605Z,97037.09
2022-11-30T01:55:15.082Z,97035.00
2022-11-30T01:57:49.657Z,97031.59
2022-11-30T02:00:19.821Z,97031.31
2022-11-30T02:02:57.046Z,97028.38
2022-11-30T02:05:27.496Z,97022.16
2022-11-30T02:07:56.491Z,97032.19
2022-11-30T02:10:30.439Z,97023.66
2022-11-30T02:13:32.395Z,97027.66
2022-11-30T02:16:09.019Z,97031.13
2022-11-30T02:18:53.813Z,97034.63
2022-11-30T02:21:31.951Z,97024.00
2022-11-30T02:24:41.327Z,97032.97
2022-11-30T02:27:26.636Z,97028.63
2022-11-30T02:29:59.951Z,97033.53
2022-11-30T02:32:33.636Z,97040.56
2022-11-30T02:35:04.814Z,97041.41
2022-11-30T02:37:35.610Z,97034.75
2022-11-30T02:40:10.500Z,97043.06
2022-11-30T02:42:38.977Z,97047.56
2022-11-30T02:45:10.590Z,97040.88
2022-11-30T02:47:47.504Z,97044.47
2022-11-30T02:50:20.144Z,97045.84
2022-11-30T02:52:50.126Z,97038.41
2022-11-30T02:55:21.059Z,97043.75
2022-11-30T02:57:49.374Z,97040.56
2022-11-30T03:00:21.018Z,97034.53
2022-11-30T03:02:49.962Z,97040.31
2022-11-30T03:05:18.509Z,97040.88
2022-11-30T03:07:46.900Z,97037.94
2022-11-30T03:10:15.295Z,97039.34
2022-11-30T03:12:43.747Z,97037.16
2022-11-30T03:15:12.739Z,97035.59
2022-11-30T03:17:42.522Z,97041.63
2022-11-30T03:20:11.655Z,97037.91
2022-11-30T03:22:39.954Z,97045.66
2022-11-30T03:25:09.770Z,97036.31
2022-11-30T03:27:38.020Z,97047.56
2022-11-30T03:30:08.435Z,97057.75
2022-11-30T03:32:36.717Z,97055.28
2022-11-30T03:35:07.434Z,97045.28
2022-11-30T03:37:35.824Z,97050.75
2022-11-30T03:40:05.039Z,97055.59
2022-11-30T03:42:33.345Z,97048.31
2022-11-30T03:45:01.654Z,97048.91
2022-11-30T03:47:29.943Z,97046.78
2022-11-30T03:49:58.450Z,97051.16
2022-11-30T03:52:28.459Z,97057.41
2022-11-30T03:54:56.802Z,97057.72
2022-11-30T03:57:25.131Z,97054.84
2022-11-30T03:59:53.522Z,97056.50
2022-11-30T04:02:21.813Z,97058.34
2022-11-30T04:04:50.089Z,97060.88
2022-11-30T04:07:18.440Z,97049.06
2022-11-30T04:09:48.207Z,97049.69
2022-11-30T04:12:16.603Z,97049.69
2022-11-30T04:14:45.257Z,97057.31
2022-11-30T04:17:13.741Z,97059.72
2022-11-30T04:19:42.264Z,97057.50
2022-11-30T04:22:10.554Z,97052.38
2022-11-30T04:24:38.883Z,97062.28
2022-11-30T04:27:08.519Z,97052.16
2022-11-30T04:29:36.866Z,97054.31
2022-11-30T04:32:05.160Z,97062.31
2022-11-30T04:34:33.429Z,97060.78
2022-11-30T04:37:01.843Z,97054.00
2022-11-30T04:39:30.113Z,97064.97
2022-11-30T04:41:59.452Z,97067.25
2022-11-30T04:44:29.175Z,97066.94
2022-11-30T04:46:57.562Z,97067.38
2022-11-30T04:49:25.866Z,97063.38
2022-11-30T04:51:54.274Z,97065.44
2022-11-30T04:54:22.766Z,97065.97
2022-11-30T04:56:51.117Z,97069.09
2022-11-30T04:59:19.369Z,97068.19
2022-11-30T05:01:49.048Z,97052.66
2022-11-30T05:04:17.609Z,97057.44
2022-11-30T05:06:45.941Z,97056.97
2022-11-30T05:09:14.224Z,97065.19
2022-11-30T05:11:42.532Z,97067.63
2022-11-30T05:14:10.858Z,97060.06
2022-11-30T05:16:39.209Z,97072.44
2022-11-30T05:19:09.014Z,97065.16
2022-11-30T05:21:41.281Z,97066.84
2022-11-30T05:24:12.535Z,97067.41
2022-11-30T05:26:40.919Z,97074.66
2022-11-30T05:29:09.233Z,97064.69
2022-11-30T05:31:41.072Z,97070.31
2022-11-30T05:34:11.384Z,97073.34
2022-11-30T05:36:41.786Z,97070.88
2022-11-30T05:39:10.178Z,97079.72
2022-11-30T05:41:38.715Z,97064.38
2022-11-30T05:44:07.828Z,97068.72
2022-11-30T05:46:40.794Z,97069.81
2022-11-30T05:49:10.867Z,97067.06
2022-11-30T05:51:41.520Z,97079.91
2022-11-30T05:54:09.835Z,97070.59
2022-11-30T05:56:38.134Z,97073.13
2022-11-30T05:59:08.457Z,97075.00
2022-11-30T06:01:36.929Z,97075.25
2022-11-30T06:04:08.767Z,97075.06
2022-11-30T06:06:38.901Z,97077.50
2022-11-30T06:09:08.249Z,97077.50
2022-11-30T06:11:36.936Z,97078.78
2022-11-30T06:14:05.676Z,97074.78
2022-11-30T06:16:34.519Z,97084.47
2022-11-30T06:19:03.685Z,97070.94
2022-11-30T06:21:32.020Z,97078.44
2022-11-30T06:24:01.949Z,97088.22
2022-11-30T06:26:30.716Z,97086.22
2022-11-30T06:28:59.085Z,97084.88
2022-11-30T06:31:27.477Z,97087.19
2022-11-30T06:33:58.781Z,97092.28
2022-11-30T06:36:31.294Z,97091.38
2022-11-30T06:39:05.825Z,97084.56
2022-11-30T06:41:34.129Z,97091.84
2022-11-30T06:44:02.467Z,97092.34
2022-11-30T06:46:30.839Z,97094.84
2022-11-30T06:48:59.108Z,97093.66
2022-11-30T06:51:27.575Z,97099.06
2022-11-30T06:53:55.887Z,97095.00
2022-11-30T06:56:25.638Z,97102.06
2022-11-30T06:58:54.393Z,97103.25
2022-11-30T07:01:22.732Z,97099.75
2022-11-30T07:03:51.465Z,97100.88
2022-11-30T07:06:19.968Z,97105.84
2022-11-30T07:08:49.843Z,97101.66
2022-11-30T07:11:18.162Z,97104.50
2022-11-30T07:13:47.843Z,97100.06
2022-11-30T07:16:16.415Z,97107.34
2022-11-30T07:18:44.757Z,97109.66
2022-11-30T07:21:13.065Z,97115.28
2022-11-30T07:23:59.053Z,97111.00
2022-11-30T07:26:27.412Z,97115.09
2022-11-30T07:28:58.635Z,97118.63
2022-11-30T07:31:29.927Z,97123.53
2022-11-30T07:33:59.800Z,97117.88
2022-11-30T07:36:30.317Z,97120.66
2022-11-30T07:38:58.854Z,97129.34
2022-11-30T07:41:27.688Z,97117.97
2022-11-30T07:43:57.394Z,97113.78
2022-11-30T07:46:25.744Z,97128.09
2022-11-30T07:48:54.073Z,97121.66
2022-11-30T07:51:23.690Z,97134.34
2022-11-30T07:53:52.465Z,97124.94
2022-11-30T07:56:22.090Z,97135.69
2022-11-30T07:58:52.665Z,97138.38
2022-11-30T08:01:26.003Z,97133.66
2022-11-30T08:03:55.308Z,97122.66
2022-11-30T08:06:26.055Z,97132.09
2022-11-30T08:08:58.333Z,97136.03
2022-11-30T08:11:29.121Z,97140.13
2022-11-30T08:13:57.675Z,97135.13
2022-11-30T08:16:30.828Z,97142.63
2022-11-30T08:18:59.974Z,97143.06
2022-11-30T08:21:28.251Z,97156.19
2022-11-30T08:23:57.812Z,97142.13
2022-11-30T08:26:29.024Z,97147.56
2022-11-30T08:28:58.850Z,97150.66
2022-11-30T08:31:30.899Z,97150.09
2022-11-30T08:34:01.905Z,97157.81
2022-11-30T08:36:31.745Z,97153.38
2022-11-30T08:39:01.134Z,97154.69
2022-11-30T08:41:29.669Z,97157.16
2022-11-30T08:43:58.457Z,97156.66
2022-11-30T08:47:00.757Z,97162.75
2022-11-30T08:49:24.223Z,97169.84
2022-11-30T08:57:34.665Z,97162.78
2022-11-30T09:00:03.444Z,97167.03
2022-11-30T09:02:33.240Z,97163.78
2022-11-30T09:05:01.540Z,97170.97
2022-11-30T09:07:30.014Z,97164.66
2022-11-30T09:09:59.537Z,97169.69
2022-11-30T09:12:27.915Z,97173.91
2022-11-30T09:14:58.600Z,97171.22
2022-11-30T09:17:27.525Z,97168.94
2022-11-30T09:19:57.149Z,97166.88
2022-11-30T09:22:25.531Z,97174.44
2022-11-30T09:24:53.949Z,97170.72
2022-11-30T09:27:22.408Z,97161.78
2022-11-30T09:29:50.709Z,97161.78
2022-11-30T09:32:19.043Z,97169.41
2022-11-30T09:34:49.231Z,97182.84
2022-11-30T09:37:20.270Z,97173.66
2022-11-30T09:39:48.560Z,97167.00
2022-11-30T09:42:30.445Z,97174.69
2022-11-30T09:45:10.855Z,97166.34
2022-11-30T09:48:18.144Z,97164.31
2022-11-30T09:50:48.616Z,97160.97
2022-11-30T09:53:29.383Z,97166.66
2022-11-30T09:56:00.174Z,97164.91
2022-11-30T09:58:39.756Z,97160.25
2022-11-30T10:01:17.463Z,97149.97
2022-11-30T10:03:47.380Z,97153.38
2022-11-30T10:06:25.527Z,97151.84
2022-11-30T10:09:16.552Z,97148.94
2022-11-30T10:11:59.451Z,97154.06
2022-11-30T10:15:18.618Z,97146.09
2022-11-30T10:17:56.458Z,97150.84
2022-11-30T10:20:43.670Z,97155.56
2022-11-30T10:23:38.015Z,97149.56
2022-11-30T10:26:12.959Z,97158.16
2022-11-30T10:28:52.416Z,97150.25
2022-11-30T10:31:22.748Z,97150.53
2022-11-30T10:33:54.184Z,97144.44
2022-11-30T10:36:30.746Z,97135.53
2022-11-30T10:39:03.818Z,97135.56
2022-11-30T10:41:40.967Z,97139.63
2022-11-30T10:44:18.418Z,97142.66
2022-11-30T10:46:57.881Z,97130.84
2022-11-30T10:49:29.510Z,97138.19
2022-11-30T10:52:04.709Z,97158.38
2022-11-30T10:54:33.548Z,97144.97
2022-11-30T10:57:05.632Z,97137.91
2022-11-30T10:59:45.111Z,97133.44
2022-11-30T11:02:36.529Z,97143.88
2022-11-30T11:05:18.906Z,97137.38
2022-11-30T11:07:53.007Z,97151.38
2022-11-30T11:10:25.733Z,97137.13
2022-11-30T11:12:59.355Z,97135.34
2022-11-30T11:15:33.571Z,97146.69
2022-11-30T11:18:24.099Z,97135.88
2022-11-30T11:21:06.713Z,97135.88
2022-11-30T11:23:38.836Z,97138.28
2022-11-30T11:26:08.711Z,97143.78
2022-11-30T11:28:45.350Z,97141.31
2022-11-30T11:31:34.452Z,97135.53
2022-11-30T11:34:03.253Z,97131.03
2022-11-30T11:36:33.429Z,97136.44
2022-11-30T11:39:03.531Z,97128.66
2022-11-30T11:41:34.216Z,97136.09
2022-11-30T11:44:21.314Z,97146.81
2022-11-30T11:46:56.809Z,97142.34
2022-11-30T11:49:28.520Z,97150.22
2022-11-30T11:52:06.866Z,97140.25
2022-11-30T11:54:41.237Z,97142.38
2022-11-30T11:57:11.528Z,97136.78
2022-11-30T11:59:50.828Z,97131.06
2022-11-30T12:02:29.479Z,97133.63
2022-11-30T12:05:00.788Z,97129.59
2022-11-30T12:07:36.118Z,97133.44
2022-11-30T12:10:51.187Z,97137.63
2022-11-30T12:13:18.533Z,97130.31
2022-11-30T12:16:05.812Z,97129.84
2022-11-30T12:18:47.597Z,97140.50
2022-11-30T12:21:22.188Z,97147.06
2022-11-30T12:24:06.677Z,97128.69
2022-11-30T12:26:42.479Z,97133.16
2022-11-30T12:29:24.410Z,97137.84
2022-11-30T12:32:10.001Z,97134.47
2022-11-30T12:35:03.748Z,97138.63
2022-11-30T12:37:45.803Z,97140.09
2022-11-30T12:40:31.566Z,97138.81
2022-11-30T12:43:14.004Z,97147.13
2022-11-30T12:45:45.642Z,97142.28
2022-11-30T12:48:32.659Z,97143.03
2022-11-30T12:51:14.683Z,97151.19
2022-11-30T12:53:54.678Z,97141.50
2022-11-30T12:56:41.391Z,97143.50
2022-11-30T12:59:29.409Z,97143.84
2022-11-30T13:02:34.068Z,97139.97
2022-11-30T13:05:09.048Z,97144.13
2022-11-30T13:07:45.061Z,97135.59
2022-11-30T13:10:26.592Z,97141.75
2022-11-30T13:12:56.362Z,97144.03
2022-11-30T13:15:28.572Z,97142.94
2022-11-30T13:17:57.257Z,97148.97
2022-11-30T13:20:35.070Z,97149.19
2022-11-30T13:23:11.325Z,97157.78
2022-11-30T13:28:54.588Z,97139.22
2022-11-30T13:31:27.916Z,97147.16
2022-11-30T13:34:00.807Z,97142.75
2022-11-30T13:36:36.407Z,97149.22
2022-11-30T13:39:30.425Z,97146.84
2022-11-30T13:42:35.327Z,97147.84
2022-11-30T13:45:30.523Z,97146.88
2022-11-30T13:48:00.533Z,97139.31
2022-11-30T13:50:38.189Z,97140.41
2022-11-30T13:53:37.886Z,97143.75
2022-11-30T13:56:36.087Z,97146.56
2022-11-30T13:59:40.835Z,97144.00
2022-11-30T14:03:15.760Z,97134.41
2022-11-30T14:05:48.023Z,97147.16
2022-11-30T14:08:42.267Z,97156.09
2022-11-30T14:11:44.271Z,97162.00
2022-11-30T14:14:48.671Z,97146.50
2022-11-30T14:17:25.558Z,97159.31
2022-11-30T14:19:58.276Z,97160.34
2022-11-30T14:22:27.604Z,97160.53
2022-11-30T14:24:58.013Z,97155.22
2022-11-30T14:27:28.945Z,97160.75
2022-11-30T14:30:04.978Z,97169.53
2022-11-30T14:32:41.584Z,97164.00
2022-11-30T14:35:15.091Z,97178.28
2022-11-30T14:37:47.375Z,97183.34
2022-11-30T14:40:21.728Z,97186.88
2022-11-30T14:42:54.332Z,97187.91
2022-11-30T14:45:26.654Z,97183.84
2022-11-30T14:48:06.533Z,97186.97
2022-11-30T14:50:36.373Z,97185.88
2022-11-30T14:53:28.299Z,97185.41
2022-11-30T14:56:05.692Z,97175.50
2022-11-30T14:58:42.381Z,97177.28
2022-11-30T15:01:22.711Z,97172.66
2022-11-30T15:03:55.682Z,97179.47
2022-11-30T15:06:34.994Z,97169.28
2022-11-30T15:09:03.876Z,97184.06
2022-11-30T15:11:33.585Z,97184.31
2022-11-30T15:14:10.959Z,97179.94
2022-11-30T15:16:39.929Z,97183.72
2022-11-30T15:19:24.094Z,97180.75
2022-11-30T15:21:53.950Z,97188.22
2022-11-30T15:24:23.254Z,97187.06
2022-11-30T15:26:59.114Z,97193.47
2022-11-30T15:29:30.569Z,97195.00
2022-11-30T15:32:01.640Z,97183.63
2022-11-30T15:34:37.558Z,97189.78
2022-11-30T15:37:06.607Z,97182.50
2022-11-30T15:39:34.940Z,97191.78
2022-11-30T15:42:06.548Z,97186.00
2022-11-30T15:44:42.923Z,97182.69
2022-11-30T15:47:27.362Z,97189.59
2022-11-30T15:49:56.892Z,97195.53
2022-11-30T15:52:29.010Z,97190.63
2022-11-30T15:54:58.872Z,97191.00
2022-11-30T15:57:59.089Z,97192.81
2022-11-30T16:00:28.084Z,97192.47
2022-11-30T16:03:09.458Z,97187.53
2022-11-30T16:05:38.807Z,97183.03
2022-11-30T16:08:16.583Z,97187.19
2022-11-30T16:10:44.959Z,97187.91
2022-11-30T16:13:17.314Z,97184.00
2022-11-30T16:15:48.613Z,97186.53
2022-11-30T16:18:20.189Z,97187.44
2022-11-30T16:20:51.781Z,97180.03
2022-11-30T16:23:21.047Z,97193.88
2022-11-30T16:25:51.375Z,97201.94
2022-11-30T16:28:22.451Z,97207.22
2022-11-30T16:30:51.298Z,97187.31
2022-11-30T16:33:21.971Z,97183.44
2022-11-30T16:35:56.496Z,97191.56
2022-11-30T16:38:25.928Z,97187.59
2022-11-30T16:40:55.713Z,97191.47
2022-11-30T16:43:26.774Z,97199.75
2022-11-30T16:45:55.328Z,97188.38
2022-11-30T16:48:23.772Z,97191.84
2022-11-30T16:50:52.702Z,97204.72
2022-11-30T16:53:22.854Z,97205.81
2022-11-30T16:55:54.609Z,97201.38
2022-11-30T16:58:24.529Z,97204.47
2022-11-30T17:00:53.207Z,97202.31
2022-11-30T17:03:27.712Z,97217.59
2022-11-30T17:05:56.347Z,97216.72
2022-11-30T17:08:25.178Z,97215.63
2022-11-30T17:10:55.363Z,97207.16
2022-11-30T17:13:25.310Z,97221.34
2022-11-30T17:15:54.818Z,97217.56
2022-11-30T17:18:23.300Z,97212.97
2022-11-30T17:20:52.924Z,97217.06
2022-11-30T17:23:21.661Z,97207.06
2022-11-30T17:25:50.105Z,97225.84
2022-11-30T17:28:18.678Z,97220.84
2022-11-30T17:30:48.841Z,97214.44
2022-11-30T17:33:17.433Z,97217.66
2022-11-30T17:35:45.934Z,97222.97
2022-11-30T17:38:14.368Z,97224.75
2022-11-30T17:40:43.057Z,97213.13
2022-11-30T17:43:11.560Z,97216.28
2022-11-30T17:45:41.591Z,97231.19
2022-11-30T17:48:11.890Z,97229.50
2022-11-30T17:50:42.872Z,97237.53
2022-11-30T17:53:17.952Z,97237.59
2022-11-30T17:55:47.598Z,97226.97
2022-11-30T17:58:16.202Z,97230.53
2022-11-30T18:00:44.752Z,97234.31
2022-11-30T18:03:14.860Z,97236.03
2022-11-30T18:08:20.442Z,97233.28
2022-11-30T18:10:48.660Z,97239.81
2022-11-30T18:13:16.940Z,97224.22
2022-11-30T18:15:45.388Z,97234.22
2022-11-30T18:18:15.014Z,97244.94
2022-11-30T18:20:43.273Z,97241.75
2022-11-30T18:23:11.739Z,97244.28
2022-11-30T18:25:43.530Z,97242.16
2022-11-30T18:28:12.151Z,97244.34
2022-11-30T18:30:40.839Z,97249.13
2022-11-30T18:33:10.069Z,97247.06
2022-11-30T18:35:39.743Z,97255.59
2022-11-30T18:38:08.007Z,97259.72
2022-11-30T18:40:36.823Z,97255.97
2022-11-30T18:43:05.289Z,97260.41
2022-11-30T18:45:34.670Z,97250.56
2022-11-30T18:48:03.637Z,97260.00
2022-11-30T18:50:33.745Z,97251.91
2022-11-30T18:53:03.941Z,97258.69
2022-11-30T18:55:32.210Z,97250.03
2022-11-30T18:58:02.635Z,97249.13
2022-11-30T19:00:31.527Z,97253.84
2022-11-30T19:02:59.744Z,97250.06
2022-11-30T19:05:35.059Z,97253.22
2022-11-30T19:08:07.988Z,97258.44
2022-11-30T19:10:37.632Z,97258.59
2022-11-30T19:13:06.815Z,97259.75
2022-11-30T19:15:39.521Z,97263.84
2022-11-30T19:18:08.486Z,97250.63
2022-11-30T19:20:40.154Z,97249.97
2022-11-30T19:23:10.154Z,97255.22
2022-11-30T19:25:38.442Z,97258.69
2022-11-30T19:28:06.912Z,97259.06
2022-11-30T19:30:35.237Z,97264.03
2022-11-30T19:33:03.944Z,97261.44
2022-11-30T19:35:34.376Z,97254.59
2022-11-30T19:38:03.932Z,97256.84
2022-11-30T19:40:42.628Z,97260.50
2022-11-30T19:43:12.036Z,97252.34
2022-11-30T19:45:50.666Z,97267.63
2022-11-30T19:48:25.136Z,97259.75
2022-11-30T19:50:55.468Z,97265.22
2022-11-30T19:53:23.786Z,97265.16
2022-11-30T19:55:53.987Z,97267.75
2022-11-30T19:58:22.272Z,97266.78
2022-11-30T20:00:51.122Z,97263.16
2022-11-30T20:03:21.616Z,97250.31
2022-11-30T20:05:50.776Z,97258.63
2022-11-30T20:08:21.322Z,97262.59
2022-11-30T20:10:52.322Z,97269.81
2022-11-30T20:13:20.564Z,97267.63
2022-11-30T20:15:51.060Z,97258.63
2022-11-30T20:18:19.845Z,97274.63
2022-11-30T20:20:49.195Z,97270.13
2022-11-30T20:23:19.549Z,97266.16
2022-11-30T20:25:59.356Z,97270.63
2022-11-30T20:28:28.610Z,97265.38
2022-11-30T20:31:09.471Z,97257.97
2022-11-30T20:33:38.495Z,97263.47
2022-11-30T20:36:11.936Z,97272.09
2022-11-30T20:38:41.307Z,97271.78
2022-11-30T20:41:15.556Z,97257.06
2022-11-30T20:43:50.613Z,97259.72
2022-11-30T20:46:34.091Z,97261.63
2022-11-30T20:49:05.469Z,97261.63
2022-11-30T20:51:52.935Z,97255.44
2022-11-30T20:54:22.128Z,97263.66
2022-11-30T20:56:54.174Z,97263.03
2022-11-30T20:59:26.386Z,97261.06
2022-11-30T21:01:56.589Z,97262.84
2022-11-30T21:04:28.395Z,97254.19
2022-11-30T21:06:57.777Z,97262.19
2022-11-30T21:09:28.446Z,97270.63
2022-11-30T21:11:58.148Z,97256.56
2022-11-30T21:14:28.230Z,97256.47
2022-11-30T21:16:57.781Z,97257.53
2022-11-30T21:19:26.632Z,97262.38
2022-11-30T21:22:00.359Z,97264.38
2022-11-30T21:24:28.618Z,97263.38
2022-11-30T21:27:04.599Z,97278.06
2022-11-30T21:29:35.790Z,97272.69
2022-11-30T21:32:05.776Z,97263.47
2022-11-30T21:34:36.972Z,97266.25
2022-11-30T21:37:17.541Z,97273.53
2022-11-30T21:39:52.927Z,97270.31
2022-11-30T21:42:23.635Z,97277.00
2022-11-30T21:44:51.856Z,97276.22
2022-11-30T21:47:23.051Z,97268.22
2022-11-30T21:49:57.125Z,97271.72
2022-11-30T21:52:33.307Z,97270.97
2022-11-30T21:55:03.774Z,97274.38
2022-11-30T21:57:42.401Z,97272.28
2022-11-30T22:00:14.333Z,97271.56
2022-11-30T22:02:43.117Z,97265.25
2022-11-30T22:05:11.459Z,97274.34
2022-11-30T22:07:39.697Z,97271.84
2022-11-30T22:10:09.999Z,97276.53
2022-11-30T22:12:38.192Z,97275.56
2022-11-30T22:15:09.547Z,97269.41
2022-11-30T22:17:37.762Z,97263.69
2022-11-30T22:20:08.069Z,97266.72
2022-11-30T22:22:36.374Z,97266.69
2022-11-30T22:25:04.948Z,97266.00
2022-11-30T22:27:33.212Z,97263.00
2022-11-30T22:30:01.560Z,97267.44
2022-11-30T22:32:31.157Z,97265.66
2022-11-30T22:34:59.325Z,97270.69
2022-11-30T22:37:27.613Z,97267.72
2022-11-30T22:39:55.907Z,97271.00
2022-11-30T22:42:24.084Z,97257.28
2022-11-30T22:44:52.345Z,97261.66
2022-11-30T22:47:20.558Z,97260.91
2022-11-30T22:49:50.653Z,97264.56
2022-11-30T22:52:32.084Z,97259.34
2022-11-30T22:55:27.237Z,97257.56
2022-11-30T22:57:55.719Z,97257.56
2022-11-30T23:00:24.210Z,97260.31
2022-11-30T23:02:52.625Z,97249.13
2022-11-30T23:05:22.216Z,97250.66
2022-11-30T23:07:50.429Z,97258.56
2022-11-30T23:10:19.176Z,97255.72
2022-11-30T23:13:02.315Z,97266.31
2022-11-30T23:15:30.526Z,97258.53
2022-11-30T23:17:58.715Z,97265.06
2022-11-30T23:20:28.452Z,97260.66
2022-11-30T23:22:56.812Z,97250.81
2022-11-30T23:25:25.312Z,97261.06
2022-11-30T23:27:53.685Z,97255.25
2022-11-30T23:30:21.948Z,97250.94
2022-11-30T23:32:50.179Z,97246.25
2022-11-30T23:35:18.447Z,97244.31
2022-11-30T23:37:48.230Z,97243.16
2022-11-30T23:40:16.977Z,97230.81
2022-11-30T23:42:45.367Z,97231.72
2022-11-30T23:45:13.753Z,97231.56
2022-11-30T23:47:41.962Z,97240.34
2022-11-30T23:50:11.658Z,97235.09
2022-11-30T23:52:39.898Z,97230.22
2022-11-30T23:55:11.219Z,97228.56
2022-11-30T23:57:39.422Z,97238.06
